Time;durP1;ratioP1;P1;durP2;ratioP2;P2;SDS_P1;SDS_P2;PMS_P1;PMS_P2;Temp;Humidity;BMP_temperature;BMP_pressure;BME280_temperature;BME280_humidity;BME280_pressure;Samples;Min_cycle;Max_cycle;Signal;HPM_P1;HPM_P2
2022/06/10 00:01:53;;;;;;;;;;;15.20;90.30;;;;;;5012593;28;19925;-77
2022/06/10 00:04:22;;;;;;;;;;;15.20;90.40;;;;;;5013805;28;19925;-77
2022/06/10 00:06:49;;;;;;;;;;;15.10;90.40;;;;;;5011876;28;20363;-77
2022/06/10 00:09:15;;;;;;;;;;;15.10;90.40;;;;;;5013549;28;19925;-77
2022/06/10 00:11:42;;;;;;;;;;;15.10;90.40;;;;;;5012254;28;19926;-77
2022/06/10 00:14:09;;;;;;;;;;;15.10;90.30;;;;;;5012142;28;19951;-77
2022/06/10 00:16:37;;;;;;;;;;;15.00;90.20;;;;;;5010786;28;19936;-78
2022/06/10 00:19:04;;;;;;;;;;;15.00;90.30;;;;;;5012086;28;19925;-77
2022/06/10 00:21:32;;;;;;;;;;;15.00;90.50;;;;;;4995951;28;19926;-78
2022/06/10 00:23:59;;;;;;;;;;;15.00;90.60;;;;;;5012972;28;20394;-77
2022/06/10 00:26:25;;;;;;;;;;;14.90;90.60;;;;;;5011809;28;19936;-77
2022/06/10 00:28:52;;;;;;;;;;;14.90;90.60;;;;;;5011999;28;20669;-77
2022/06/10 00:31:19;;;;;;;;;;;14.80;90.90;;;;;;5013660;28;20459;-77
2022/06/10 00:33:46;;;;;;;;;;;14.80;90.80;;;;;;5012049;28;19926;-78
2022/06/10 00:36:15;;;;;;;;;;;14.80;90.80;;;;;;5012189;28;19952;-77
2022/06/10 00:38:44;;;;;;;;;;;14.70;90.80;;;;;;5011790;28;20418;-77
2022/06/10 00:41:10;;;;;;;;;;;14.70;91.00;;;;;;5012038;28;19932;-77
2022/06/10 00:43:37;;;;;;;;;;;14.60;91.10;;;;;;5012090;28;19925;-77
2022/06/10 00:46:14;;;;;;;;;;;14.60;90.90;;;;;;5013258;28;19934;-78
2022/06/10 00:48:46;;;;;;;;;;;14.60;90.90;;;;;;5011414;28;19925;-77
2022/06/10 00:51:20;;;;;;;;;;;14.60;91.10;;;;;;5011915;28;19925;-77
2022/06/10 00:53:50;;;;;;;;;;;14.60;91.30;;;;;;5011698;28;19961;-77
2022/06/10 00:56:19;;;;;;;;;;;14.50;91.40;;;;;;5011670;28;20433;-77
2022/06/10 00:58:48;;;;;;;;;;;14.50;91.50;;;;;;5012972;28;19925;-77
2022/06/10 01:01:16;;;;;;;;;;;14.50;91.50;;;;;;5013199;28;19932;-77
2022/06/10 01:03:43;;;;;;;;;;;14.50;91.50;;;;;;5011943;28;19925;-77
2022/06/10 01:06:11;;;;;;;;;;;14.50;91.40;;;;;;5011341;28;20025;-77
2022/06/10 01:08:38;;;;;;;;;;;14.40;91.20;;;;;;5011340;28;19926;-77
2022/06/10 01:11:16;;;;;;;;;;;14.40;91.50;;;;;;5011762;28;19925;-77
2022/06/10 01:13:50;;;;;;;;;;;14.30;91.70;;;;;;5011946;28;20488;-78
2022/06/10 01:16:22;;;;;;;;;;;14.20;91.50;;;;;;5011742;28;20016;-77
2022/06/10 01:18:54;;;;;;;;;;;14.20;91.60;;;;;;5010204;28;20012;-77
2022/06/10 01:21:31;;;;;;;;;;;14.10;91.90;;;;;;5013729;28;20311;-78
2022/06/10 01:24:13;;;;;;;;;;;14.10;91.70;;;;;;4994255;28;19973;-77
2022/06/10 01:29:51;;;;;;;;;;;14.00;91.70;;;;;;4989911;28;19933;-77
2022/06/10 01:32:22;;;;;;;;;;;13.90;92.00;;;;;;5011731;28;19982;-78
2022/06/10 01:34:52;;;;;;;;;;;13.80;92.30;;;;;;4996025;28;19926;-77
2022/06/10 01:37:22;;;;;;;;;;;13.80;92.40;;;;;;4996381;28;20024;-77
2022/06/10 01:39:53;;;;;;;;;;;13.70;92.60;;;;;;4994731;28;20012;-77
2022/06/10 01:42:23;;;;;;;;;;;13.70;92.60;;;;;;4978656;28;20388;-77
2022/06/10 01:44:53;;;;;;;;;;;13.60;92.60;;;;;;4996026;28;19926;-77
2022/06/10 01:47:23;;;;;;;;;;;13.60;92.80;;;;;;4994830;28;19934;-77
2022/06/10 01:49:53;;;;;;;;;;;13.60;93.00;;;;;;4994773;28;19926;-77
2022/06/10 01:52:23;;;;;;;;;;;13.60;92.80;;;;;;4994894;28;20020;-77
2022/06/10 01:54:53;;;;;;;;;;;13.50;92.70;;;;;;5001012;28;19977;-77
2022/06/10 01:57:24;;;;;;;;;;;13.60;93.10;;;;;;5030615;28;19937;-77
2022/06/10 01:59:53;;;;;;;;;;;13.50;93.00;;;;;;5015625;28;19951;-77
2022/06/10 02:02:25;;;;;;;;;;;13.50;93.30;;;;;;5016012;28;20016;-77
2022/06/10 02:04:53;;;;;;;;;;;13.50;93.20;;;;;;5030894;28;19926;-77
2022/06/10 02:07:23;;;;;;;;;;;13.50;93.30;;;;;;5014189;28;19930;-77
2022/06/10 02:09:52;;;;;;;;;;;13.50;93.20;;;;;;5015468;28;19926;-77
2022/06/10 02:12:21;;;;;;;;;;;13.50;93.20;;;;;;5015160;28;19965;-77
2022/06/10 02:14:51;;;;;;;;;;;13.50;93.40;;;;;;5014032;28;19980;-77
2022/06/10 02:17:19;;;;;;;;;;;13.50;93.40;;;;;;5029846;28;20377;-77
2022/06/10 02:19:50;;;;;;;;;;;13.40;93.40;;;;;;5014221;28;20032;-77
2022/06/10 02:22:20;;;;;;;;;;;13.40;93.40;;;;;;5030242;28;19926;-77
2022/06/10 02:24:50;;;;;;;;;;;13.40;93.50;;;;;;5013453;28;19983;-77
2022/06/10 02:27:18;;;;;;;;;;;13.40;93.40;;;;;;5013174;28;19929;-77
2022/06/10 02:29:49;;;;;;;;;;;13.40;93.50;;;;;;5015134;28;19925;-77
2022/06/10 02:32:16;;;;;;;;;;;13.40;93.30;;;;;;5014049;28;19926;-77
2022/06/10 02:34:43;;;;;;;;;;;13.40;93.30;;;;;;5013794;28;19925;-77
2022/06/10 02:37:18;;;;;;;;;;;13.40;93.30;;;;;;5014813;28;20400;-77
2022/06/10 02:39:47;;;;;;;;;;;13.40;93.20;;;;;;5014785;28;19932;-78
2022/06/10 02:42:15;;;;;;;;;;;13.40;93.30;;;;;;5013706;28;20348;-77
2022/06/10 02:44:44;;;;;;;;;;;13.40;93.30;;;;;;5013420;28;20462;-77
2022/06/10 02:47:18;;;;;;;;;;;13.40;93.30;;;;;;5013089;28;20029;-77
2022/06/10 02:49:44;;;;;;;;;;;13.40;93.30;;;;;;5014946;28;19937;-77
2022/06/10 02:52:14;;;;;;;;;;;13.40;93.30;;;;;;5014680;28;19952;-77
2022/06/10 02:54:42;;;;;;;;;;;13.40;93.20;;;;;;5013271;28;19926;-77
2022/06/10 02:57:15;;;;;;;;;;;13.40;93.20;;;;;;5013063;28;20036;-77
2022/06/10 03:02:30;;;;;;;;;;;13.40;93.10;;;;;;5013749;28;19936;-78
2022/06/10 03:05:03;;;;;;;;;;;13.40;93.20;;;;;;5029840;28;19930;-77
2022/06/10 03:07:40;;;;;;;;;;;13.40;93.30;;;;;;5029758;28;19929;-77
2022/06/10 03:10:12;;;;;;;;;;;13.30;93.30;;;;;;5015132;28;20406;-77
2022/06/10 03:12:40;;;;;;;;;;;13.30;93.30;;;;;;5014654;28;20482;-77
2022/06/10 03:15:25;;;;;;;;;;;13.30;93.30;;;;;;5014501;28;20021;-77
2022/06/10 03:17:56;;;;;;;;;;;13.30;93.30;;;;;;5014306;28;20012;-77
2022/06/10 03:20:24;;;;;;;;;;;13.30;93.30;;;;;;5014717;28;19935;-77
2022/06/10 03:23:13;;;;;;;;;;;13.30;93.20;;;;;;4996789;28;19952;-77
2022/06/10 03:25:41;;;;;;;;;;;13.30;93.30;;;;;;5013382;28;19948;-77
2022/06/10 03:28:11;;;;;;;;;;;13.30;93.20;;;;;;5012584;28;19936;-77
2022/06/10 03:30:40;;;;;;;;;;;13.30;93.40;;;;;;5014337;28;19964;-77
2022/06/10 03:33:11;;;;;;;;;;;13.20;93.40;;;;;;5011360;28;19929;-77
2022/06/10 03:35:41;;;;;;;;;;;13.20;93.40;;;;;;5014368;28;20035;-77
2022/06/10 03:38:10;;;;;;;;;;;13.20;93.40;;;;;;5013755;28;20040;-77
2022/06/10 03:40:37;;;;;;;;;;;13.20;93.20;;;;;;5012853;28;20502;-77
2022/06/10 03:43:05;;;;;;;;;;;13.20;93.20;;;;;;5013491;28;20025;-77
2022/06/10 03:45:34;;;;;;;;;;;13.20;93.60;;;;;;5014170;28;20021;-77
2022/06/10 03:48:01;;;;;;;;;;;13.20;93.70;;;;;;5013812;28;20492;-77
2022/06/10 03:50:29;;;;;;;;;;;13.20;93.70;;;;;;5012783;28;19925;-77
2022/06/10 03:52:56;;;;;;;;;;;13.20;93.50;;;;;;5012345;28;19932;-77
2022/06/10 03:55:24;;;;;;;;;;;13.10;93.50;;;;;;5013714;28;19980;-77
2022/06/10 03:57:51;;;;;;;;;;;13.10;93.80;;;;;;5012168;28;19929;-77
2022/06/10 04:00:19;;;;;;;;;;;13.10;93.70;;;;;;5014191;28;19932;-77
2022/06/10 04:02:46;;;;;;;;;;;13.10;93.50;;;;;;5012508;28;20024;-77
2022/06/10 04:05:13;;;;;;;;;;;13.10;94.00;;;;;;5012198;28;19926;-77
2022/06/10 04:07:40;;;;;;;;;;;13.10;94.20;;;;;;5011893;28;19930;-77
2022/06/10 04:10:09;;;;;;;;;;;13.10;94.10;;;;;;5012590;28;19925;-77
2022/06/10 04:12:37;;;;;;;;;;;13.10;94.40;;;;;;5012348;28;20008;-77
2022/06/10 04:15:04;;;;;;;;;;;13.10;94.30;;;;;;5012675;28;19937;-77
2022/06/10 04:17:31;;;;;;;;;;;13.10;94.60;;;;;;5012222;28;19936;-77
2022/06/10 04:19:59;;;;;;;;;;;13.10;94.80;;;;;;5013079;28;19972;-77
2022/06/10 04:22:26;;;;;;;;;;;13.10;94.40;;;;;;5012246;28;19926;-77
2022/06/10 04:24:52;;;;;;;;;;;13.10;94.40;;;;;;5012152;28;19932;-77
2022/06/10 04:27:19;;;;;;;;;;;13.10;94.70;;;;;;5011746;28;20028;-77
2022/06/10 04:29:48;;;;;;;;;;;13.10;94.30;;;;;;5012563;28;19976;-78
2022/06/10 04:32:15;;;;;;;;;;;13.10;94.40;;;;;;5012081;28;19952;-77
2022/06/10 04:34:42;;;;;;;;;;;13.10;94.40;;;;;;5012195;28;19925;-77
2022/06/10 04:37:09;;;;;;;;;;;13.10;94.70;;;;;;5010050;28;19936;-77
2022/06/10 04:39:37;;;;;;;;;;;13.20;94.70;;;;;;5028425;28;19969;-77
2022/06/10 04:42:04;;;;;;;;;;;13.20;94.90;;;;;;5011934;28;19926;-77
2022/06/10 04:44:31;;;;;;;;;;;13.20;95.10;;;;;;5012239;28;20376;-77
2022/06/10 04:46:59;;;;;;;;;;;13.20;95.00;;;;;;5011797;28;19936;-77
2022/06/10 04:49:25;;;;;;;;;;;13.30;95.00;;;;;;5028439;28;19932;-77
2022/06/10 04:51:52;;;;;;;;;;;13.20;94.80;;;;;;5012177;28;19962;-77
2022/06/10 04:54:19;;;;;;;;;;;13.30;95.10;;;;;;5028814;28;19926;-76
2022/06/10 04:56:46;;;;;;;;;;;13.30;95.20;;;;;;5031863;28;20024;-76
2022/06/10 04:59:13;;;;;;;;;;;13.40;95.20;;;;;;5014953;28;19932;-76
2022/06/10 05:01:39;;;;;;;;;;;13.40;95.30;;;;;;5015966;28;20024;-76
2022/06/10 05:04:07;;;;;;;;;;;13.50;95.40;;;;;;5015417;28;19926;-76
2022/06/10 05:06:34;;;;;;;;;;;13.50;95.70;;;;;;5015405;28;19930;-77
2022/06/10 05:09:01;;;;;;;;;;;13.60;95.90;;;;;;5016289;28;19926;-77
2022/06/10 05:11:28;;;;;;;;;;;13.70;96.20;;;;;;5013592;28;20012;-77
2022/06/10 05:13:58;;;;;;;;;;;13.70;96.20;;;;;;5016616;28;20016;-77
2022/06/10 05:16:24;;;;;;;;;;;13.80;96.30;;;;;;5014811;28;19929;-77
2022/06/10 05:18:51;;;;;;;;;;;13.90;96.60;;;;;;5015815;28;19997;-77
2022/06/10 05:21:19;;;;;;;;;;;13.90;96.60;;;;;;5014808;28;19932;-77
2022/06/10 05:23:47;;;;;;;;;;;14.00;96.60;;;;;;5014635;28;19925;-77
2022/06/10 05:26:14;;;;;;;;;;;14.00;96.70;;;;;;5014644;28;19936;-77
2022/06/10 05:28:41;;;;;;;;;;;14.10;96.70;;;;;;5015655;28;19932;-77
2022/06/10 05:31:08;;;;;;;;;;;14.20;96.60;;;;;;5014739;28;20012;-77
2022/06/10 05:36:17;;;;;;;;;;;14.30;96.80;;;;;;5013751;28;19996;-77
2022/06/10 05:38:46;;;;;;;;;;;14.30;96.90;;;;;;5014444;28;19932;-77
2022/06/10 05:43:57;;;;;;;;;;;14.40;96.90;;;;;;5014600;28;20023;-78
2022/06/10 05:46:23;;;;;;;;;;;14.50;96.90;;;;;;5014583;28;19972;-78
2022/06/10 05:48:50;;;;;;;;;;;14.50;97.10;;;;;;5013851;28;19932;-77
2022/06/10 05:51:18;;;;;;;;;;;14.60;97.00;;;;;;5014464;28;19932;-77
2022/06/10 05:53:46;;;;;;;;;;;14.60;97.00;;;;;;5014592;28;20004;-77
2022/06/10 05:56:13;;;;;;;;;;;14.60;97.10;;;;;;5014222;28;20250;-77
2022/06/10 05:58:42;;;;;;;;;;;14.70;97.20;;;;;;5014375;28;20024;-77
2022/06/10 06:01:09;;;;;;;;;;;14.70;97.20;;;;;;5014387;28;19925;-77
2022/06/10 06:03:37;;;;;;;;;;;14.80;97.30;;;;;;5014207;28;19925;-77
2022/06/10 06:06:04;;;;;;;;;;;14.80;97.40;;;;;;5012958;28;20458;-79
2022/06/10 06:08:31;;;;;;;;;;;14.80;97.30;;;;;;5014595;28;19961;-79
2022/06/10 06:10:59;;;;;;;;;;;14.80;97.20;;;;;;5015141;28;20058;-78
2022/06/10 06:13:26;;;;;;;;;;;14.90;97.40;;;;;;5013647;28;19925;-78
2022/06/10 06:15:52;;;;;;;;;;;14.90;97.30;;;;;;5014835;28;20435;-78
2022/06/10 06:18:19;;;;;;;;;;;14.90;97.50;;;;;;4995977;28;19926;-78
2022/06/10 06:20:46;;;;;;;;;;;14.90;97.40;;;;;;5013070;28;20028;-78
2022/06/10 06:23:13;;;;;;;;;;;14.90;97.40;;;;;;5012576;28;19932;-78
2022/06/10 06:25:40;;;;;;;;;;;14.90;97.60;;;;;;5014644;28;20372;-78
2022/06/10 06:28:08;;;;;;;;;;;15.00;97.60;;;;;;5014251;28;20763;-78
2022/06/10 06:30:36;;;;;;;;;;;15.00;97.60;;;;;;5013070;28;20020;-78
2022/06/10 06:33:04;;;;;;;;;;;15.00;97.60;;;;;;5013046;28;20338;-77
2022/06/10 06:35:31;;;;;;;;;;;15.10;97.80;;;;;;5012483;28;20431;-78
2022/06/10 06:37:58;;;;;;;;;;;15.10;97.80;;;;;;5010748;28;19932;-78
2022/06/10 06:40:25;;;;;;;;;;;15.10;97.90;;;;;;5013256;28;20028;-78
2022/06/10 06:42:51;;;;;;;;;;;15.20;98.00;;;;;;5012917;28;19968;-78
2022/06/10 06:45:21;;;;;;;;;;;15.20;98.00;;;;;;5010298;28;20015;-78
2022/06/10 06:47:48;;;;;;;;;;;15.30;98.30;;;;;;5012240;28;19925;-78
2022/06/10 06:50:17;;;;;;;;;;;15.30;98.40;;;;;;5009427;28;20017;-79
2022/06/10 06:52:44;;;;;;;;;;;15.30;98.30;;;;;;5011727;28;20020;-79
2022/06/10 06:55:11;;;;;;;;;;;15.30;98.50;;;;;;5012071;28;19930;-79
2022/06/10 06:57:37;;;;;;;;;;;15.30;98.70;;;;;;5010296;28;19925;-79
2022/06/10 07:00:05;;;;;;;;;;;15.30;98.50;;;;;;5009850;28;20025;-79
2022/06/10 07:02:34;;;;;;;;;;;15.30;98.40;;;;;;5010554;28;20494;-79
2022/06/10 07:05:01;;;;;;;;;;;15.30;98.70;;;;;;5010497;28;19930;-79
2022/06/10 07:07:28;;;;;;;;;;;15.30;98.90;;;;;;5010250;28;19929;-78
2022/06/10 07:09:55;;;;;;;;;;;15.40;98.90;;;;;;5011642;28;19933;-78
2022/06/10 07:12:22;;;;;;;;;;;15.40;98.90;;;;;;5013341;28;20016;-78
2022/06/10 07:14:49;;;;;;;;;;;15.40;99.00;;;;;;5014233;28;20262;-78
2022/06/10 07:17:15;;;;;;;;;;;15.50;99.10;;;;;;5011545;28;19926;-79
2022/06/10 07:19:44;;;;;;;;;;;15.50;99.20;;;;;;5012041;28;19932;-79
2022/06/10 07:22:11;;;;;;;;;;;15.60;99.10;;;;;;5012719;28;19925;-79
2022/06/10 07:24:38;;;;;;;;;;;15.60;99.20;;;;;;5010564;28;20451;-82
2022/06/10 07:27:05;;;;;;;;;;;15.70;99.30;;;;;;5028478;28;20281;-79
2022/06/10 07:29:32;;;;;;;;;;;15.70;99.20;;;;;;5012340;28;20042;-78
2022/06/10 07:31:59;;;;;;;;;;;15.70;99.30;;;;;;5011177;28;20478;-82
2022/06/10 07:34:25;;;;;;;;;;;15.80;99.30;;;;;;5012197;28;19929;-78
2022/06/10 07:36:53;;;;;;;;;;;15.80;99.20;;;;;;5012184;28;20068;-78
2022/06/10 07:39:21;;;;;;;;;;;15.80;99.30;;;;;;5011985;28;20410;-78
2022/06/10 07:42:00;;;;;;;;;;;15.90;99.20;;;;;;5012111;28;20308;-78
2022/06/10 07:44:28;;;;;;;;;;;15.90;99.40;;;;;;5006679;28;19934;-76
2022/06/10 07:46:58;;;;;;;;;;;15.90;99.40;;;;;;5010722;28;20028;-78
2022/06/10 07:49:25;;;;;;;;;;;16.00;99.30;;;;;;5010929;28;19925;-78
2022/06/10 07:51:52;;;;;;;;;;;16.10;99.20;;;;;;5012816;28;19925;-78
2022/06/10 07:54:20;;;;;;;;;;;16.10;99.20;;;;;;5010199;28;19976;-78
2022/06/10 07:56:47;;;;;;;;;;;16.10;99.10;;;;;;5011440;28;20386;-79
2022/06/10 07:59:14;;;;;;;;;;;16.20;99.20;;;;;;5012154;28;20012;-78
2022/06/10 08:01:41;;;;;;;;;;;16.30;99.10;;;;;;5010886;28;19932;-78
2022/06/10 08:04:08;;;;;;;;;;;16.30;99.00;;;;;;5011402;28;20397;-79
2022/06/10 08:06:36;;;;;;;;;;;16.30;99.10;;;;;;5010176;28;19972;-78
2022/06/10 08:09:03;;;;;;;;;;;16.30;99.10;;;;;;5011280;28;19926;-78
2022/06/10 08:11:31;;;;;;;;;;;16.40;99.00;;;;;;5010398;28;19988;-78
2022/06/10 08:13:58;;;;;;;;;;;16.50;99.00;;;;;;5010687;28;19968;-78
2022/06/10 08:16:25;;;;;;;;;;;16.50;98.90;;;;;;5010483;28;19932;-78
2022/06/10 08:18:52;;;;;;;;;;;16.50;99.00;;;;;;4994237;28;20039;-78
2022/06/10 08:24:06;;;;;;;;;;;16.60;99.10;;;;;;5011885;28;19930;-79
2022/06/10 08:26:35;;;;;;;;;;;16.70;99.00;;;;;;5013859;28;20009;-79
2022/06/10 08:29:03;;;;;;;;;;;16.70;99.00;;;;;;5011763;28;20017;-79
2022/06/10 08:31:29;;;;;;;;;;;16.70;98.90;;;;;;5013564;28;19925;-79
2022/06/10 08:33:57;;;;;;;;;;;16.70;98.80;;;;;;5012977;28;19961;-78
2022/06/10 08:36:24;;;;;;;;;;;16.80;98.80;;;;;;5011699;28;20472;-79
2022/06/10 08:38:50;;;;;;;;;;;16.80;98.70;;;;;;5013361;28;19926;-78
2022/06/10 08:41:29;;;;;;;;;;;16.80;98.70;;;;;;5013402;28;20036;-79
2022/06/10 08:44:00;;;;;;;;;;;16.80;98.70;;;;;;5011610;28;20032;-79
2022/06/10 08:46:36;;;;;;;;;;;16.90;98.70;;;;;;5008623;28;19926;-79
2022/06/10 08:49:13;;;;;;;;;;;16.90;98.60;;;;;;5010543;28;20355;-82
2022/06/10 08:51:44;;;;;;;;;;;17.00;98.40;;;;;;5027827;28;19926;-78
2022/06/10 08:54:15;;;;;;;;;;;17.00;98.40;;;;;;5012270;28;20348;-79
2022/06/10 08:56:45;;;;;;;;;;;17.00;98.40;;;;;;4993454;28;19929;-78
2022/06/10 08:59:19;;;;;;;;;;;17.10;98.40;;;;;;5010731;28;19926;-78
2022/06/10 09:01:48;;;;;;;;;;;17.10;98.40;;;;;;5010516;28;19937;-79
2022/06/10 09:04:24;;;;;;;;;;;17.10;98.40;;;;;;5011279;28;20024;-79
2022/06/10 09:06:53;;;;;;;;;;;17.20;98.30;;;;;;4993883;28;20060;-79
2022/06/10 09:09:22;;;;;;;;;;;17.20;98.40;;;;;;5011146;28;19932;-81
2022/06/10 09:11:51;;;;;;;;;;;17.30;98.20;;;;;;5011510;28;20607;-80
2022/06/10 09:14:21;;;;;;;;;;;17.30;98.20;;;;;;4994912;28;20024;-81
2022/06/10 09:16:51;;;;;;;;;;;17.30;98.20;;;;;;5010839;28;19926;-80
2022/06/10 09:19:22;;;;;;;;;;;17.30;98.30;;;;;;5010766;28;20048;-79
2022/06/10 09:21:52;;;;;;;;;;;17.40;98.20;;;;;;5010827;28;19926;-80
2022/06/10 09:24:25;;;;;;;;;;;17.40;98.10;;;;;;5008999;28;19930;-78
2022/06/10 09:26:55;;;;;;;;;;;17.40;98.00;;;;;;5012148;28;19925;-78
2022/06/10 09:29:23;;;;;;;;;;;17.40;98.00;;;;;;5026891;28;19926;-79
2022/06/10 09:31:55;;;;;;;;;;;17.40;98.00;;;;;;5011336;28;20364;-79
2022/06/10 09:34:27;;;;;;;;;;;17.40;98.00;;;;;;5010361;28;19929;-80
2022/06/10 09:36:57;;;;;;;;;;;17.40;98.00;;;;;;5010471;28;20044;-80
2022/06/10 09:42:19;;;;;;;;;;;17.40;98.00;;;;;;5014792;28;19949;-78
2022/06/10 09:44:50;;;;;;;;;;;17.50;97.90;;;;;;5015895;28;19930;-76
2022/06/10 09:47:20;;;;;;;;;;;17.50;97.90;;;;;;5013860;28;19925;-80
2022/06/10 09:50:04;;;;;;;;;;;17.50;97.90;;;;;;5013542;28;19957;-79
2022/06/10 09:52:33;;;;;;;;;;;17.50;97.90;;;;;;5012371;28;19926;-79
2022/06/10 09:55:10;;;;;;;;;;;17.50;97.90;;;;;;5013616;28;20418;-79
2022/06/10 09:57:48;;;;;;;;;;;17.50;98.00;;;;;;5011691;28;19969;-78
2022/06/10 10:00:19;;;;;;;;;;;17.50;97.90;;;;;;5012100;28;20344;-80
2022/06/10 10:02:52;;;;;;;;;;;17.50;98.00;;;;;;5011796;28;19925;-80
2022/06/10 10:05:22;;;;;;;;;;;17.60;98.10;;;;;;5013385;28;19929;-79
2022/06/10 10:07:50;;;;;;;;;;;17.70;98.20;;;;;;5011984;28;19932;-80
2022/06/10 10:10:26;;;;;;;;;;;17.70;98.00;;;;;;5013388;28;19933;-79
2022/06/10 10:13:12;;;;;;;;;;;17.80;97.90;;;;;;5011337;28;19930;-79
2022/06/10 10:15:49;;;;;;;;;;;17.80;98.00;;;;;;5028700;28;20021;-79
2022/06/10 10:18:33;;;;;;;;;;;18.00;97.70;;;;;;5009802;28;19930;-80
2022/06/10 10:21:03;;;;;;;;;;;18.10;97.60;;;;;;5012837;28;19926;-78
2022/06/10 10:23:32;;;;;;;;;;;18.20;97.40;;;;;;5012823;28;20423;-77
2022/06/10 10:26:00;;;;;;;;;;;18.20;97.40;;;;;;5010999;28;19957;-84
2022/06/10 10:28:29;;;;;;;;;;;18.30;97.30;;;;;;5010611;28;19980;-79
2022/06/10 10:31:01;;;;;;;;;;;18.20;97.50;;;;;;5011912;28;20028;-83
2022/06/10 10:33:27;;;;;;;;;;;18.30;97.70;;;;;;5010126;28;19926;-82
2022/06/10 10:35:55;;;;;;;;;;;18.40;97.60;;;;;;4996251;28;20020;-81
2022/06/10 10:38:30;;;;;;;;;;;18.40;97.40;;;;;;4995561;28;19972;-82
2022/06/10 10:40:57;;;;;;;;;;;18.50;97.50;;;;;;5012231;28;20023;-80
2022/06/10 10:43:25;;;;;;;;;;;18.50;97.40;;;;;;5011711;28;19993;-81
2022/06/10 10:45:54;;;;;;;;;;;18.60;97.30;;;;;;5010041;28;19929;-81
2022/06/10 10:48:25;;;;;;;;;;;18.70;97.10;;;;;;5008833;28;19932;-81
2022/06/10 10:50:59;;;;;;;;;;;18.70;97.00;;;;;;5007935;28;19925;-82
2022/06/10 10:53:28;;;;;;;;;;;18.80;96.80;;;;;;5009883;28;19926;-81
2022/06/10 10:55:56;;;;;;;;;;;18.80;96.80;;;;;;5009911;28;20037;-81
2022/06/10 10:58:27;;;;;;;;;;;18.80;97.00;;;;;;5010619;28;19925;-81
2022/06/10 11:00:56;;;;;;;;;;;18.90;96.90;;;;;;5009304;28;19925;-82
2022/06/10 11:03:26;;;;;;;;;;;18.90;96.70;;;;;;5011897;28;19925;-82
2022/06/10 11:05:53;;;;;;;;;;;18.90;96.70;;;;;;5011069;28;20458;-81
2022/06/10 11:08:22;;;;;;;;;;;18.90;96.70;;;;;;5010765;28;19925;-80
2022/06/10 11:10:59;;;;;;;;;;;19.00;96.60;;;;;;5010018;28;20032;-81
2022/06/10 11:13:32;;;;;;;;;;;19.00;96.60;;;;;;5012644;28;19932;-81
2022/06/10 11:16:14;;;;;;;;;;;19.00;96.50;;;;;;5010323;28;20472;-82
2022/06/10 11:18:42;;;;;;;;;;;19.10;96.40;;;;;;4993355;28;19926;-79
2022/06/10 11:21:10;;;;;;;;;;;19.10;96.50;;;;;;5012038;28;19926;-79
2022/06/10 11:23:36;;;;;;;;;;;19.10;96.60;;;;;;5013909;28;19964;-80
2022/06/10 11:26:07;;;;;;;;;;;19.20;96.90;;;;;;5012621;28;20021;-80
2022/06/10 11:28:37;;;;;;;;;;;19.30;96.70;;;;;;5012557;28;19932;-81
2022/06/10 11:31:04;;;;;;;;;;;19.40;96.70;;;;;;5029162;28;19933;-80
2022/06/10 11:33:32;;;;;;;;;;;19.50;96.50;;;;;;5012163;28;19925;-83
2022/06/10 11:36:07;;;;;;;;;;;19.60;96.30;;;;;;5011544;28;19929;-82
2022/06/10 11:38:35;;;;;;;;;;;19.70;96.30;;;;;;5008784;28;19929;-81
2022/06/10 11:41:14;;;;;;;;;;;19.70;95.70;;;;;;5012236;28;19933;-81
2022/06/10 11:43:44;;;;;;;;;;;19.80;95.70;;;;;;5012147;28;19926;-81
2022/06/10 11:46:14;;;;;;;;;;;19.80;95.60;;;;;;5011932;28;19977;-82
2022/06/10 11:48:43;;;;;;;;;;;19.80;95.40;;;;;;5011651;28;20113;-81
2022/06/10 11:51:14;;;;;;;;;;;19.80;95.40;;;;;;5012086;28;19976;-82
2022/06/10 11:53:45;;;;;;;;;;;19.80;95.40;;;;;;4995516;28;20032;-83
2022/06/10 12:01:49;;;;;;;;;;;19.90;95.60;;;;;;5012157;28;19926;-81
2022/06/10 12:04:19;;;;;;;;;;;19.90;95.60;;;;;;5010412;28;20047;-81
2022/06/10 12:06:48;;;;;;;;;;;19.90;95.40;;;;;;5009361;28;20392;-82
2022/06/10 12:09:20;;;;;;;;;;;20.00;95.40;;;;;;5004567;28;20392;-83
2022/06/10 12:11:50;;;;;;;;;;;20.00;95.40;;;;;;5009364;28;19984;-82
2022/06/10 12:14:18;;;;;;;;;;;20.00;95.30;;;;;;5008896;28;19925;-82
2022/06/10 12:16:47;;;;;;;;;;;20.00;95.30;;;;;;4992263;28;19930;-83
2022/06/10 12:19:16;;;;;;;;;;;20.00;95.80;;;;;;4992859;28;19926;-82
2022/06/10 12:21:43;;;;;;;;;;;20.10;95.70;;;;;;5009408;28;19925;-82
2022/06/10 12:24:14;;;;;;;;;;;20.20;95.30;;;;;;5010711;28;20412;-82
2022/06/10 12:26:47;;;;;;;;;;;20.20;95.10;;;;;;5010879;28;19950;-82
2022/06/10 12:29:16;;;;;;;;;;;20.30;94.40;;;;;;5010475;28;19925;-82
2022/06/10 12:31:46;;;;;;;;;;;20.40;94.10;;;;;;5010700;28;19926;-83
2022/06/10 12:34:18;;;;;;;;;;;20.40;93.90;;;;;;5010595;28;19984;-82
2022/06/10 12:36:47;;;;;;;;;;;20.50;93.70;;;;;;5010475;28;19929;-84
2022/06/10 12:39:19;;;;;;;;;;;20.50;94.10;;;;;;5009471;28;20020;-83
2022/06/10 12:41:48;;;;;;;;;;;20.50;94.00;;;;;;4993257;28;20065;-82
2022/06/10 12:44:18;;;;;;;;;;;20.60;93.80;;;;;;4992630;28;20771;-86
2022/06/10 12:46:46;;;;;;;;;;;20.60;93.80;;;;;;4992577;28;19964;-80
2022/06/10 12:49:19;;;;;;;;;;;20.70;93.80;;;;;;5010507;28;20024;-84
2022/06/10 12:51:49;;;;;;;;;;;20.70;94.00;;;;;;4993317;28;19965;-83
2022/06/10 12:54:23;;;;;;;;;;;20.80;94.10;;;;;;5011218;28;20364;-83
2022/06/10 12:56:50;;;;;;;;;;;20.80;94.30;;;;;;5009081;28;19929;-83
2022/06/10 12:59:24;;;;;;;;;;;20.80;94.10;;;;;;5010696;28;19969;-83
2022/06/10 13:01:52;;;;;;;;;;;20.90;93.80;;;;;;5010554;28;20222;-86
2022/06/10 13:04:37;;;;;;;;;;;20.90;93.90;;;;;;5011366;28;19925;-85
2022/06/10 13:07:06;;;;;;;;;;;20.90;93.70;;;;;;5008671;28;19961;-83
2022/06/10 13:09:35;;;;;;;;;;;20.90;93.10;;;;;;4994515;28;20036;-85
2022/06/10 13:12:22;;;;;;;;;;;20.90;93.10;;;;;;4994662;28;19964;-83
2022/06/10 13:15:11;;;;;;;;;;;20.90;93.30;;;;;;5009683;28;19926;-83
2022/06/10 13:17:51;;;;;;;;;;;20.90;93.40;;;;;;4997676;28;20069;-82
2022/06/10 13:20:22;;;;;;;;;;;20.80;92.80;;;;;;5012440;28;20024;-82
2022/06/10 13:23:08;;;;;;;;;;;20.80;92.90;;;;;;5014014;28;19932;-82
2022/06/10 13:25:36;;;;;;;;;;;20.80;92.90;;;;;;5030174;28;19933;-82
2022/06/10 13:28:03;;;;;;;;;;;20.90;92.70;;;;;;5013669;28;19936;-82
2022/06/10 13:30:31;;;;;;;;;;;21.00;92.20;;;;;;5013921;28;19933;-82
2022/06/10 13:33:04;;;;;;;;;;;21.00;92.30;;;;;;5014473;28;20471;-82
2022/06/10 13:35:32;;;;;;;;;;;21.00;92.60;;;;;;5013350;28;20445;-82
2022/06/10 13:38:00;;;;;;;;;;;21.00;93.00;;;;;;5012984;28;19965;-82
2022/06/10 13:40:28;;;;;;;;;;;21.00;92.70;;;;;;5014085;28;20020;-82
2022/06/10 13:42:58;;;;;;;;;;;21.00;92.70;;;;;;5013912;28;20024;-82
2022/06/10 13:45:28;;;;;;;;;;;21.00;93.20;;;;;;5013191;28;19926;-82
2022/06/10 13:47:57;;;;;;;;;;;21.10;92.90;;;;;;5012618;28;19936;-82
2022/06/10 13:50:37;;;;;;;;;;;21.10;92.90;;;;;;5013484;28;20008;-82
2022/06/10 13:53:05;;;;;;;;;;;21.30;92.60;;;;;;4996554;28;20029;-82
2022/06/10 13:55:35;;;;;;;;;;;21.40;92.50;;;;;;5014214;28;19926;-82
2022/06/10 13:58:05;;;;;;;;;;;21.40;91.50;;;;;;5012181;28;19953;-82
2022/06/10 14:00:34;;;;;;;;;;;21.50;91.20;;;;;;5014204;28;19926;-82
2022/06/10 14:03:04;;;;;;;;;;;21.40;91.20;;;;;;5013262;28;20360;-82
2022/06/10 14:05:32;;;;;;;;;;;21.40;91.50;;;;;;5010979;28;20035;-82
2022/06/10 14:08:01;;;;;;;;;;;21.40;91.60;;;;;;5012675;28;20315;-83
2022/06/10 14:10:29;;;;;;;;;;;21.40;91.70;;;;;;5013526;28;19936;-83
2022/06/10 14:12:57;;;;;;;;;;;21.40;91.70;;;;;;5012837;28;20412;-83
2022/06/10 14:15:28;;;;;;;;;;;21.40;92.00;;;;;;5011701;28;20039;-82
2022/06/10 14:17:57;;;;;;;;;;;21.30;91.90;;;;;;5011138;28;20380;-83
2022/06/10 14:20:26;;;;;;;;;;;21.30;91.90;;;;;;4994767;28;19933;-82
2022/06/10 14:22:59;;;;;;;;;;;21.30;92.70;;;;;;5012196;28;19932;-82
2022/06/10 14:25:26;;;;;;;;;;;21.40;92.10;;;;;;5013959;28;19925;-82
2022/06/10 14:28:02;;;;;;;;;;;21.40;91.80;;;;;;4994626;28;19929;-81
2022/06/10 14:30:43;;;;;;;;;;;21.40;91.90;;;;;;5013131;28;19925;-79
2022/06/10 14:33:15;;;;;;;;;;;21.30;92.10;;;;;;5029394;28;20031;-80
2022/06/10 14:35:43;;;;;;;;;;;21.30;92.40;;;;;;5011098;28;19926;-80
2022/06/10 14:38:19;;;;;;;;;;;21.30;92.30;;;;;;5028239;28;19969;-81
2022/06/10 14:40:53;;;;;;;;;;;21.30;92.20;;;;;;5012529;28;19925;-79
2022/06/10 14:43:22;;;;;;;;;;;21.20;92.60;;;;;;5014146;28;19925;-79
2022/06/10 14:46:00;;;;;;;;;;;21.20;93.10;;;;;;5013755;28;19930;-77
2022/06/10 14:48:28;;;;;;;;;;;21.30;93.20;;;;;;5013119;28;19930;-82
2022/06/10 14:51:15;;;;;;;;;;;21.40;92.80;;;;;;5011718;28;19926;-82
2022/06/10 14:53:43;;;;;;;;;;;21.40;92.80;;;;;;5011802;28;19932;-80